Derby Field Lovelock US
ICAO: KLOL
IATA: LOL
Category: Medium
Scheduled Services: No

Elevation: 3904 ft
TransAlt. 18000 ft.

Airport Communications:
ASOS:120.675
OAKLAND CNTR:128.8
RENO RDO:122.4
CTAF/UNICOM:122.8

KLOL Zoom In..

If you have problems with the map follow the link
https://www.worldairports.se/pages/airport.php?
ICAO=KLOL

Runways:

(A) RW 02 length 5529 ft width 75 ft
---- / hdg 16

(B) RW 08 length 4931 ft width 75 ft
---- / hdg 76

(C) RW 20 length 5529 ft width 75 ft
---- / hdg 196

(D) RW 26 length 4931 ft width 75 ft
---- / hdg 256

Location; KLOL
Day. 28 / Time. 11.53 Zulu
* Altimeter: 30.20
* Temperature: 02° c. 35.6°f.
* Wind from: 070° Speed 04 kn.
Dewpoint: -01° c.
Visibility: 10 Statute Miles.
Clouds: Scattered 1000 ft.

KLOL 281153Z AUTO 07004KT 10SM SCT100 02/M01 A3020 RMK AO2 SLP231 70002 T00221006 10061 20017 56018


Wind From 070°
Speed 04 kn.

 
 
jpsmedia worldairports.se 2020   terms of use